Marco Polo — C6JZ7 — position and weather

sailwx.info

Track history (hours):
 
Tides and Currents Weather Stations Pressure Air Temp Water Temp Dewpoint Dewpoint Depression Visibility Wind Speed Wind Dir Waves Ship Positions

Marco Polo

Operator: Orient Lines

Last reported at 2017-Aug-22 22:30 UTC. Time now 2017-Aug-22 22:28 UTC.
Position N 51°04' W 007°28'.

Type: Ship. MMSI: 308691456.

Date/timePositionNaut miles runAvg speedWind from/ knotsBaromVisibWave heightAir tempDewpointWater temp
2017-Aug-22 22:30N 51°04' W 007°28'713.3
2017-Aug-22 22:01N 51°09' W 007°34'713.2
2017-Aug-22 21:30N 51°15' W 007°40'713.2
2017-Aug-22 21:01N 51°20' W 007°46'713.6
2017-Aug-22 20:31N 51°25' W 007°53'714.0
2017-Aug-22 20:01N 51°31' W 007°59'713.9
2017-Aug-22 19:31N 51°37' W 008°06'713.9
2017-Aug-22 19:01N 51°42' W 008°12'612.1
2017-Aug-22 18:30N 51°48' W 008°16'3 6.1
2017-Aug-22 17:59N 51°51' W 008°18'0 0.0
2017-Aug-22 17:29N 51°51' W 008°18'0 0.0
2017-Aug-22 16:59N 51°51' W 008°18'0 0.0
2017-Aug-22 16:29N 51°51' W 008°18'0 0.0
2017-Aug-22 15:59N 51°51' W 008°18'0 0.0
2017-Aug-22 15:29N 51°51' W 008°18'0 0.0
2017-Aug-22 14:59N 51°51' W 008°18'0 0.0
2017-Aug-22 14:29N 51°51' W 008°18'0 0.0
2017-Aug-22 13:59N 51°51' W 008°18'0 0.0
2017-Aug-22 13:29N 51°51' W 008°18'0 0.0
2017-Aug-22 12:59N 51°51' W 008°18'0 0.0
2017-Aug-22 12:29N 51°51' W 008°18'0 0.0
2017-Aug-22 11:56N 51°51' W 008°18'0 0.0
2017-Aug-22 11:29N 51°51' W 008°18'0 0.0
2017-Aug-22 10:59N 51°51' W 008°18'0 0.0
2017-Aug-22 10:29N 51°51' W 008°18'0 0.0
2017-Aug-22 09:59N 51°51' W 008°18'0 0.0
2017-Aug-22 09:29N 51°51' W 008°18'0 0.0
2017-Aug-22 08:59N 51°51' W 008°18'0 0.0
2017-Aug-22 08:29N 51°51' W 008°18'0 0.0
2017-Aug-22 07:59N 51°51' W 008°18'0 0.0
2017-Aug-22 07:29N 51°51' W 008°18'0 0.0
2017-Aug-22 07:00N 51°51' W 008°18'2 3.1
2017-Aug-22 06:30N 51°50' W 008°16'510.2
2017-Aug-22 06:00N 51°45' W 008°14'713.5
2017-Aug-22 05:30N 51°46' W 008°03'714.1
2017-Aug-22 05:00N 51°48' W 007°52'714.6
2017-Aug-22 04:31N 51°50' W 007°41'714.9
2017-Aug-22 04:00N 51°52' W 007°29'815.0
2017-Aug-22 03:30N 51°54' W 007°17'815.1
2017-Aug-22 03:00N 51°57' W 007°06'815.5
2017-Aug-22 02:30N 51°59' W 006°54'816.1
2017-Aug-22 02:00N 52°01' W 006°41'917.0
2017-Aug-22 01:30N 52°04' W 006°28'917.6
2017-Aug-22 01:00N 52°06' W 006°14'917.6
2017-Aug-22 00:30N 52°14' W 006°06'917.5
2017-Aug-22 00:00N 52°22' W 006°03'816.6
2017-Aug-21 23:31N 52°30' W 005°60'815.6
2017-Aug-21 22:58N 52°38' W 005°56'89 3.6
2017-Aug-20 22:02N 53°33' W 003°59'113.9
2017-Aug-20 21:57N 53°33' W 003°57'613.7
2017-Aug-20 21:31N 53°33' W 003°47'713.2
2017-Aug-20 21:00N 53°33' W 003°36'713.5
2017-Aug-20 20:30N 53°33' W 003°24'611.2
2017-Aug-20 20:00N 53°31' W 003°15'611.4
2017-Aug-20 19:30N 53°30' W 003°06'510.6
2017-Aug-20 19:00N 53°26' W 003°01'2 3.1
2017-Aug-20 18:29N 53°24' W 003°00'0 0.0
2017-Aug-20 17:53N 53°24' W 003°00'0 0.0
2017-Aug-20 17:29N 53°24' W 003°00'0 0.0
2017-Aug-20 16:59N 53°24' W 003°00'0 0.0
2017-Aug-20 16:29N 53°24' W 003°00'0 0.0
2017-Aug-20 15:59N 53°24' W 003°00'0 0.0
2017-Aug-20 15:29N 53°24' W 003°00'0 0.0
2017-Aug-20 14:59N 53°24' W 003°00'0 0.0
2017-Aug-20 14:29N 53°24' W 003°00'0 0.0
2017-Aug-20 13:59N 53°24' W 003°00'0 0.0
2017-Aug-20 13:29N 53°24' W 003°00'0 0.0
2017-Aug-20 12:59N 53°24' W 003°00'0 0.0
2017-Aug-20 12:29N 53°24' W 003°00'0 0.0
2017-Aug-20 11:59N 53°24' W 003°00'0 0.0
2017-Aug-20 11:29N 53°24' W 003°00'0 0.0
2017-Aug-20 10:53N 53°24' W 003°00'0 0.0
2017-Aug-20 10:29N 53°24' W 003°00'0 0.0
2017-Aug-20 09:59N 53°24' W 003°00'0 0.0
2017-Aug-20 09:26N 53°24' W 003°00'0 0.0
2017-Aug-20 08:59N 53°24' W 003°00'0 0.0
2017-Aug-20 08:29N 53°24' W 003°00'0 0.0
2017-Aug-20 07:59N 53°24' W 003°00'0 0.0
2017-Aug-20 07:30N 53°24' W 003°00'1 1.6
2017-Aug-20 07:00N 53°25' W 003°01'612.3
2017-Aug-20 06:30N 53°30' W 003°06'713.9
2017-Aug-20 06:00N 53°31' W 003°18'510.3
2017-Aug-20 05:30N 53°31' W 003°26'714.8
2017-Aug-20 05:00N 53°31' W 003°39'914.4
2017-Aug-20 04:24N 53°34' W 003°53'512.1
2017-Aug-20 04:00N 53°36' W 003°60'5113.1
2017-Aug-20 00:08N 54°13' W 004°59'214.6
2017-Aug-20 00:01N 54°15' W 005°00'714.7
2017-Aug-19 23:30N 54°22' W 005°04'714.2
2017-Aug-19 23:00N 54°28' W 005°08'714.2
2017-Aug-19 22:31N 54°35' W 005°11'714.5
2017-Aug-19 22:01N 54°42' W 005°15'714.8
2017-Aug-19 21:31N 54°49' W 005°19'815.0
2017-Aug-19 21:00N 54°57' W 005°21'29 1.8
2017-Aug-19 05:24N 55°24' W 005°04'1514.2
2017-Aug-19 04:20N 55°16' W 005°27'514.9
2017-Aug-19 04:00N 55°13' W 005°35'715.5
2017-Aug-19 03:31N 55°13' W 005°48'815.2
2017-Aug-19 03:00N 55°16' W 006°01'815.1
2017-Aug-19 02:30N 55°21' W 006°10'714.4
2017-Aug-19 02:00N 55°25' W 006°21'815.5
2017-Aug-19 01:31N 55°31' W 006°29'714.6
2017-Aug-19 01:00N 55°37' W 006°37'713.5
2017-Aug-19 00:30N 55°42' W 006°45'713.9
2017-Aug-19 00:00N 55°48' W 006°52'100 9.9
2017-Aug-18 13:57N 57°25' W 006°09'0 0.2
2017-Aug-18 13:30N 57°25' W 006°09'0 0.0
2017-Aug-18 11:42N 57°25' W 006°09'0 0.1
2017-Aug-18 11:30N 57°25' W 006°09'0 0.0
2017-Aug-18 09:45N 57°25' W 006°09'0 0.0
2017-Aug-18 09:30N 57°25' W 006°09'0 0.0
2017-Aug-18 08:54N 57°25' W 006°09'0 0.0
2017-Aug-18 08:30N 57°25' W 006°09'0 0.0
2017-Aug-18 07:59N 57°25' W 006°09'0 0.3
2017-Aug-18 07:28N 57°25' W 006°09'146 3.8
2017-Aug-16 16:48N 59°14' W 003°03'414.2
2017-Aug-16 16:30N 59°12' W 002°56'612.4
2017-Aug-16 16:00N 59°07' W 002°48'510.9
2017-Aug-16 15:30N 59°02' W 002°44'611.9
2017-Aug-16 15:00N 59°01' W 002°56'2 3.8
2017-Aug-16 14:30N 59°00' W 002°58'0 0.0
2017-Aug-16 14:00N 59°00' W 002°58'0 0.0
2017-Aug-16 13:30N 59°00' W 002°58'0 0.0
2017-Aug-16 13:00N 59°00' W 002°58'0 0.0
2017-Aug-16 12:30N 59°00' W 002°58'0 0.0
2017-Aug-16 12:00N 59°00' W 002°58'0 0.0
2017-Aug-16 11:30N 59°00' W 002°58'0 0.0
2017-Aug-16 11:00N 59°00' W 002°58'0 0.0
2017-Aug-16 10:30N 59°00' W 002°58'0 0.0
2017-Aug-16 10:00N 59°00' W 002°58'0 0.0
2017-Aug-16 09:30N 59°00' W 002°58'0 0.0
2017-Aug-16 09:00N 59°00' W 002°58'0 0.0
2017-Aug-16 08:30N 59°00' W 002°58'0 0.0
2017-Aug-16 08:00N 59°00' W 002°58'0 0.0
2017-Aug-16 07:30N 59°00' W 002°58'0 0.0
2017-Aug-16 07:00N 59°00' W 002°58'0 0.0
2017-Aug-16 06:30N 59°00' W 002°58'2 4.7
2017-Aug-16 06:00N 59°01' W 002°54'612.2
2017-Aug-16 05:31N 58°60' W 002°43'3 6.1
2017-Aug-16 05:00N 58°58' W 002°38'611.7
2017-Aug-16 04:30N 58°52' W 002°35'713.2
2017-Aug-16 04:01N 58°46' W 002°30'713.9
2017-Aug-16 03:30N 58°40' W 002°25'4314.3
2017-Aug-16 00:29N 57°59' W 001°56'714.9
2017-Aug-16 00:00N 57°53' W 001°51'816.4
2017-Aug-15 23:30N 57°45' W 001°45'816.9
2017-Aug-15 23:00N 57°37' W 001°40'816.4
2017-Aug-15 22:30N 57°29' W 001°40'1016.5
2017-Aug-15 21:55N 57°19' W 001°44'716.3
2017-Aug-15 21:31N 57°13' W 001°47'815.9
2017-Aug-15 21:01N 57°06' W 001°53'2815.3
2017-Aug-15 19:10N 56°39' W 002°12'215.3
2017-Aug-15 19:01N 56°37' W 002°13'815.4
2017-Aug-15 18:31N 56°30' W 002°18'815.3
2017-Aug-15 18:00N 56°23' W 002°23'815.5
2017-Aug-15 17:30N 56°15' W 002°28'815.5
2017-Aug-15 17:00N 56°11' W 002°40'815.7
2017-Aug-15 16:31N 56°07' W 002°52'815.5
2017-Aug-15 16:00N 56°04' W 003°05'510.6
2017-Aug-15 15:30N 56°02' W 003°14'612.1
2017-Aug-15 15:00N 56°00' W 003°24'1 0.1
2017-Aug-15 05:25N 56°00' W 003°23'3 7.1
2017-Aug-15 05:00N 56°01' W 003°18'4 8.1
2017-Aug-15 04:29N 56°03' W 003°11'611.8
2017-Aug-15 04:00N 56°04' W 003°01'4 8.2
2017-Aug-15 03:30N 56°06' W 002°55'510.8
2017-Aug-15 03:00N 56°09' W 002°47'611.0
2017-Aug-15 02:30N 56°12' W 002°39'510.2
2017-Aug-15 02:00N 56°15' W 002°31'5 9.8
2017-Aug-15 01:30N 56°18' W 002°24'5 9.9
2017-Aug-15 01:00N 56°21' W 002°18'5 9.2
2017-Aug-15 00:30N 56°25' W 002°12'5 9.1
2017-Aug-15 00:00N 56°28' W 002°06'5 9.0
2017-Aug-14 23:30N 56°31' W 002°01'29211.5
2017-Aug-13 22:01N 59°57' E 004°34'012.3
2017-Aug-13 22:00N 59°57' E 004°34'612.8
2017-Aug-13 21:30N 60°02' E 004°43'713.4
2017-Aug-13 21:00N 60°06' E 004°53'713.3
2017-Aug-13 20:30N 60°09' E 005°05'510.6
2017-Aug-13 20:00N 60°14' E 005°09'612.5
2017-Aug-13 19:30N 60°20' E 005°11'5 9.8
2017-Aug-13 19:01N 60°24' E 005°17'1 1.9
2017-Aug-13 18:30N 60°24' E 005°19'0 0.0
2017-Aug-13 18:00N 60°24' E 005°19'0 0.0
2017-Aug-13 17:30N 60°24' E 005°19'0 0.0
2017-Aug-13 17:00N 60°24' E 005°19'0 0.0
2017-Aug-13 16:30N 60°24' E 005°19'0 0.0
2017-Aug-13 16:00N 60°24' E 005°19'0 0.0
2017-Aug-13 15:30N 60°24' E 005°19'0 0.0
2017-Aug-13 15:00N 60°24' E 005°19'0 0.0
2017-Aug-13 14:30N 60°24' E 005°19'0 0.0
2017-Aug-13 14:00N 60°24' E 005°19'0 0.0
2017-Aug-13 13:30N 60°24' E 005°19'0 0.0
2017-Aug-13 12:57N 60°24' E 005°19'0 0.0
2017-Aug-13 12:30N 60°24' E 005°19'0 0.0
2017-Aug-13 12:00N 60°24' E 005°19'0 0.0
2017-Aug-13 11:30N 60°24' E 005°19'0 0.0
2017-Aug-13 11:00N 60°24' E 005°19'0 0.0
2017-Aug-13 10:30N 60°24' E 005°19'0 0.0
2017-Aug-13 10:00N 60°24' E 005°19'0 0.0
2017-Aug-13 09:30N 60°24' E 005°19'0 0.0
2017-Aug-13 09:00N 60°24' E 005°19'0 0.0
2017-Aug-13 08:30N 60°24' E 005°19'0 0.0
2017-Aug-13 08:00N 60°24' E 005°19'1 2.2
2017-Aug-13 07:30N 60°24' E 005°16'611.2
2017-Aug-13 07:00N 60°25' E 005°05'815.2
2017-Aug-13 06:30N 60°31' E 004°57'816.3
2017-Aug-13 06:00N 60°39' E 004°51'816.0
2017-Aug-13 05:30N 60°46' E 004°46'713.1
2017-Aug-13 05:00N 60°51' E 004°37'612.3
2017-Aug-13 04:30N 60°55' E 004°28'611.9
2017-Aug-13 04:00N 61°01' E 004°24'612.7
2017-Aug-13 03:30N 61°07' E 004°24'713.0
2017-Aug-13 03:00N 61°14' E 004°24'613.1
2017-Aug-13 02:30N 61°20' E 004°24'613.0
2017-Aug-13 02:00N 61°27' E 004°24'612.1
2017-Aug-13 01:30N 61°33' E 004°24'612.6
2017-Aug-13 01:00N 61°39' E 004°24'713.7
2017-Aug-13 00:30N 61°46' E 004°25'612.9
2017-Aug-13 00:00N 61°52' E 004°29'612.6
2017-Aug-12 23:30N 61°58' E 004°34'712.9
2017-Aug-12 23:00N 62°04' E 004°40'  
Track history (hours):
 
Tides and Currents Weather Stations Pressure Air Temp Water Temp Dewpoint Dewpoint Depression Visibility Wind Speed Wind Dir Waves Ship Positions

Marco Polo

Operator: Orient Lines

Last reported at 2017-Aug-22 22:30 UTC. Time now 2017-Aug-22 22:29 UTC.
Position N 51°04' W 007°28'.

Type: Ship. MMSI: 308691456.

Date/timePositionNaut miles runAvg speedWind from/ knotsBaromVisibWave heightAir tempDewpointWater temp
2017-Aug-22 22:30N 51°04' W 007°28'713.3
2017-Aug-22 22:01N 51°09' W 007°34'713.2
2017-Aug-22 21:30N 51°15' W 007°40'713.2
2017-Aug-22 21:01N 51°20' W 007°46'713.6
2017-Aug-22 20:31N 51°25' W 007°53'714.0
2017-Aug-22 20:01N 51°31' W 007°59'713.9
2017-Aug-22 19:31N 51°37' W 008°06'713.9
2017-Aug-22 19:01N 51°42' W 008°12'612.1
2017-Aug-22 18:30N 51°48' W 008°16'3 6.1
2017-Aug-22 17:59N 51°51' W 008°18'0 0.0
2017-Aug-22 17:29N 51°51' W 008°18'0 0.0
2017-Aug-22 16:59N 51°51' W 008°18'0 0.0
2017-Aug-22 16:29N 51°51' W 008°18'0 0.0
2017-Aug-22 15:59N 51°51' W 008°18'0 0.0
2017-Aug-22 15:29N 51°51' W 008°18'0 0.0
2017-Aug-22 14:59N 51°51' W 008°18'0 0.0
2017-Aug-22 14:29N 51°51' W 008°18'0 0.0
2017-Aug-22 13:59N 51°51' W 008°18'0 0.0
2017-Aug-22 13:29N 51°51' W 008°18'0 0.0
2017-Aug-22 12:59N 51°51' W 008°18'0 0.0
2017-Aug-22 12:29N 51°51' W 008°18'0 0.0
2017-Aug-22 11:56N 51°51' W 008°18'0 0.0
2017-Aug-22 11:29N 51°51' W 008°18'0 0.0
2017-Aug-22 10:59N 51°51' W 008°18'0 0.0
2017-Aug-22 10:29N 51°51' W 008°18'0 0.0
2017-Aug-22 09:59N 51°51' W 008°18'0 0.0
2017-Aug-22 09:29N 51°51' W 008°18'0 0.0
2017-Aug-22 08:59N 51°51' W 008°18'0 0.0
2017-Aug-22 08:29N 51°51' W 008°18'0 0.0
2017-Aug-22 07:59N 51°51' W 008°18'0 0.0
2017-Aug-22 07:29N 51°51' W 008°18'0 0.0
2017-Aug-22 07:00N 51°51' W 008°18'2 3.1
2017-Aug-22 06:30N 51°50' W 008°16'510.2
2017-Aug-22 06:00N 51°45' W 008°14'713.5
2017-Aug-22 05:30N 51°46' W 008°03'714.1
2017-Aug-22 05:00N 51°48' W 007°52'714.6
2017-Aug-22 04:31N 51°50' W 007°41'714.9
2017-Aug-22 04:00N 51°52' W 007°29'815.0
2017-Aug-22 03:30N 51°54' W 007°17'815.1
2017-Aug-22 03:00N 51°57' W 007°06'815.5
2017-Aug-22 02:30N 51°59' W 006°54'816.1
2017-Aug-22 02:00N 52°01' W 006°41'917.0
2017-Aug-22 01:30N 52°04' W 006°28'917.6
2017-Aug-22 01:00N 52°06' W 006°14'917.6
2017-Aug-22 00:30N 52°14' W 006°06'917.5
2017-Aug-22 00:00N 52°22' W 006°03'816.6
2017-Aug-21 23:31N 52°30' W 005°60'815.6
2017-Aug-21 22:58N 52°38' W 005°56'89 3.6
2017-Aug-20 22:02N 53°33' W 003°59'113.9
2017-Aug-20 21:57N 53°33' W 003°57'613.7
2017-Aug-20 21:31N 53°33' W 003°47'713.2
2017-Aug-20 21:00N 53°33' W 003°36'713.5
2017-Aug-20 20:30N 53°33' W 003°24'611.2
2017-Aug-20 20:00N 53°31' W 003°15'611.4
2017-Aug-20 19:30N 53°30' W 003°06'510.6
2017-Aug-20 19:00N 53°26' W 003°01'2 3.1
2017-Aug-20 18:29N 53°24' W 003°00'0 0.0
2017-Aug-20 17:53N 53°24' W 003°00'0 0.0
2017-Aug-20 17:29N 53°24' W 003°00'0 0.0
2017-Aug-20 16:59N 53°24' W 003°00'0 0.0
2017-Aug-20 16:29N 53°24' W 003°00'0 0.0
2017-Aug-20 15:59N 53°24' W 003°00'0 0.0
2017-Aug-20 15:29N 53°24' W 003°00'0 0.0
2017-Aug-20 14:59N 53°24' W 003°00'0 0.0
2017-Aug-20 14:29N 53°24' W 003°00'0 0.0
2017-Aug-20 13:59N 53°24' W 003°00'0 0.0
2017-Aug-20 13:29N 53°24' W 003°00'0 0.0
2017-Aug-20 12:59N 53°24' W 003°00'0 0.0
2017-Aug-20 12:29N 53°24' W 003°00'0 0.0
2017-Aug-20 11:59N 53°24' W 003°00'0 0.0
2017-Aug-20 11:29N 53°24' W 003°00'0 0.0
2017-Aug-20 10:53N 53°24' W 003°00'0 0.0
2017-Aug-20 10:29N 53°24' W 003°00'0 0.0
2017-Aug-20 09:59N 53°24' W 003°00'0 0.0
2017-Aug-20 09:26N 53°24' W 003°00'0 0.0
2017-Aug-20 08:59N 53°24' W 003°00'0 0.0
2017-Aug-20 08:29N 53°24' W 003°00'0 0.0
2017-Aug-20 07:59N 53°24' W 003°00'0 0.0
2017-Aug-20 07:30N 53°24' W 003°00'1 1.6
2017-Aug-20 07:00N 53°25' W 003°01'612.3
2017-Aug-20 06:30N 53°30' W 003°06'713.9
2017-Aug-20 06:00N 53°31' W 003°18'510.3
2017-Aug-20 05:30N 53°31' W 003°26'714.8
2017-Aug-20 05:00N 53°31' W 003°39'914.4
2017-Aug-20 04:24N 53°34' W 003°53'512.1
2017-Aug-20 04:00N 53°36' W 003°60'5113.1
2017-Aug-20 00:08N 54°13' W 004°59'214.6
2017-Aug-20 00:01N 54°15' W 005°00'714.7
2017-Aug-19 23:30N 54°22' W 005°04'714.2
2017-Aug-19 23:00N 54°28' W 005°08'714.2
2017-Aug-19 22:31N 54°35' W 005°11'714.5
2017-Aug-19 22:01N 54°42' W 005°15'714.8
2017-Aug-19 21:31N 54°49' W 005°19'815.0
2017-Aug-19 21:00N 54°57' W 005°21'29 1.8
2017-Aug-19 05:24N 55°24' W 005°04'1514.2
2017-Aug-19 04:20N 55°16' W 005°27'514.9
2017-Aug-19 04:00N 55°13' W 005°35'715.5
2017-Aug-19 03:31N 55°13' W 005°48'815.2
2017-Aug-19 03:00N 55°16' W 006°01'815.1
2017-Aug-19 02:30N 55°21' W 006°10'714.4
2017-Aug-19 02:00N 55°25' W 006°21'815.5
2017-Aug-19 01:31N 55°31' W 006°29'714.6
2017-Aug-19 01:00N 55°37' W 006°37'713.5
2017-Aug-19 00:30N 55°42' W 006°45'713.9
2017-Aug-19 00:00N 55°48' W 006°52'100 9.9
2017-Aug-18 13:57N 57°25' W 006°09'0 0.2
2017-Aug-18 13:30N 57°25' W 006°09'0 0.0
2017-Aug-18 11:42N 57°25' W 006°09'0 0.1
2017-Aug-18 11:30N 57°25' W 006°09'0 0.0
2017-Aug-18 09:45N 57°25' W 006°09'0 0.0
2017-Aug-18 09:30N 57°25' W 006°09'0 0.0
2017-Aug-18 08:54N 57°25' W 006°09'0 0.0
2017-Aug-18 08:30N 57°25' W 006°09'0 0.0
2017-Aug-18 07:59N 57°25' W 006°09'0 0.3
2017-Aug-18 07:28N 57°25' W 006°09'146 3.8
2017-Aug-16 16:48N 59°14' W 003°03'414.2
2017-Aug-16 16:30N 59°12' W 002°56'612.4
2017-Aug-16 16:00N 59°07' W 002°48'510.9
2017-Aug-16 15:30N 59°02' W 002°44'611.9
2017-Aug-16 15:00N 59°01' W 002°56'2 3.8
2017-Aug-16 14:30N 59°00' W 002°58'0 0.0
2017-Aug-16 14:00N 59°00' W 002°58'0 0.0
2017-Aug-16 13:30N 59°00' W 002°58'0 0.0
2017-Aug-16 13:00N 59°00' W 002°58'0 0.0
2017-Aug-16 12:30N 59°00' W 002°58'0 0.0
2017-Aug-16 12:00N 59°00' W 002°58'0 0.0
2017-Aug-16 11:30N 59°00' W 002°58'0 0.0
2017-Aug-16 11:00N 59°00' W 002°58'0 0.0
2017-Aug-16 10:30N 59°00' W 002°58'0 0.0
2017-Aug-16 10:00N 59°00' W 002°58'0 0.0
2017-Aug-16 09:30N 59°00' W 002°58'0 0.0
2017-Aug-16 09:00N 59°00' W 002°58'0 0.0
2017-Aug-16 08:30N 59°00' W 002°58'0 0.0
2017-Aug-16 08:00N 59°00' W 002°58'0 0.0
2017-Aug-16 07:30N 59°00' W 002°58'0 0.0
2017-Aug-16 07:00N 59°00' W 002°58'0 0.0
2017-Aug-16 06:30N 59°00' W 002°58'2 4.7
2017-Aug-16 06:00N 59°01' W 002°54'612.2
2017-Aug-16 05:31N 58°60' W 002°43'3 6.1
2017-Aug-16 05:00N 58°58' W 002°38'611.7
2017-Aug-16 04:30N 58°52' W 002°35'713.2
2017-Aug-16 04:01N 58°46' W 002°30'713.9
2017-Aug-16 03:30N 58°40' W 002°25'4314.3
2017-Aug-16 00:29N 57°59' W 001°56'714.9
2017-Aug-16 00:00N 57°53' W 001°51'816.4
2017-Aug-15 23:30N 57°45' W 001°45'816.9
2017-Aug-15 23:00N 57°37' W 001°40'816.4
2017-Aug-15 22:30N 57°29' W 001°40'1016.5
2017-Aug-15 21:55N 57°19' W 001°44'716.3
2017-Aug-15 21:31N 57°13' W 001°47'815.9
2017-Aug-15 21:01N 57°06' W 001°53'2815.3
2017-Aug-15 19:10N 56°39' W 002°12'215.3
2017-Aug-15 19:01N 56°37' W 002°13'815.4
2017-Aug-15 18:31N 56°30' W 002°18'815.3
2017-Aug-15 18:00N 56°23' W 002°23'815.5
2017-Aug-15 17:30N 56°15' W 002°28'815.5
2017-Aug-15 17:00N 56°11' W 002°40'815.7
2017-Aug-15 16:31N 56°07' W 002°52'815.5
2017-Aug-15 16:00N 56°04' W 003°05'510.6
2017-Aug-15 15:30N 56°02' W 003°14'612.1
2017-Aug-15 15:00N 56°00' W 003°24'1 0.1
2017-Aug-15 05:25N 56°00' W 003°23'3 7.1
2017-Aug-15 05:00N 56°01' W 003°18'4 8.1
2017-Aug-15 04:29N 56°03' W 003°11'611.8
2017-Aug-15 04:00N 56°04' W 003°01'4 8.2
2017-Aug-15 03:30N 56°06' W 002°55'510.8
2017-Aug-15 03:00N 56°09' W 002°47'611.0
2017-Aug-15 02:30N 56°12' W 002°39'510.2
2017-Aug-15 02:00N 56°15' W 002°31'5 9.8
2017-Aug-15 01:30N 56°18' W 002°24'5 9.9
2017-Aug-15 01:00N 56°21' W 002°18'5 9.2
2017-Aug-15 00:30N 56°25' W 002°12'5 9.1
2017-Aug-15 00:00N 56°28' W 002°06'5 9.0
2017-Aug-14 23:30N 56°31' W 002°01'29211.5
2017-Aug-13 22:01N 59°57' E 004°34'012.3
2017-Aug-13 22:00N 59°57' E 004°34'612.8
2017-Aug-13 21:30N 60°02' E 004°43'713.4
2017-Aug-13 21:00N 60°06' E 004°53'713.3
2017-Aug-13 20:30N 60°09' E 005°05'510.6
2017-Aug-13 20:00N 60°14' E 005°09'612.5
2017-Aug-13 19:30N 60°20' E 005°11'5 9.8
2017-Aug-13 19:01N 60°24' E 005°17'1 1.9
2017-Aug-13 18:30N 60°24' E 005°19'0 0.0
2017-Aug-13 18:00N 60°24' E 005°19'0 0.0
2017-Aug-13 17:30N 60°24' E 005°19'0 0.0
2017-Aug-13 17:00N 60°24' E 005°19'0 0.0
2017-Aug-13 16:30N 60°24' E 005°19'0 0.0
2017-Aug-13 16:00N 60°24' E 005°19'0 0.0
2017-Aug-13 15:30N 60°24' E 005°19'0 0.0
2017-Aug-13 15:00N 60°24' E 005°19'0 0.0
2017-Aug-13 14:30N 60°24' E 005°19'0 0.0
2017-Aug-13 14:00N 60°24' E 005°19'0 0.0
2017-Aug-13 13:30N 60°24' E 005°19'0 0.0
2017-Aug-13 12:57N 60°24' E 005°19'0 0.0
2017-Aug-13 12:30N 60°24' E 005°19'0 0.0
2017-Aug-13 12:00N 60°24' E 005°19'0 0.0
2017-Aug-13 11:30N 60°24' E 005°19'0 0.0
2017-Aug-13 11:00N 60°24' E 005°19'0 0.0
2017-Aug-13 10:30N 60°24' E 005°19'0 0.0
2017-Aug-13 10:00N 60°24' E 005°19'0 0.0
2017-Aug-13 09:30N 60°24' E 005°19'0 0.0
2017-Aug-13 09:00N 60°24' E 005°19'0 0.0
2017-Aug-13 08:30N 60°24' E 005°19'0 0.0
2017-Aug-13 08:00N 60°24' E 005°19'1 2.2
2017-Aug-13 07:30N 60°24' E 005°16'611.2
2017-Aug-13 07:00N 60°25' E 005°05'815.2
2017-Aug-13 06:30N 60°31' E 004°57'816.3
2017-Aug-13 06:00N 60°39' E 004°51'816.0
2017-Aug-13 05:30N 60°46' E 004°46'713.1
2017-Aug-13 05:00N 60°51' E 004°37'612.3
2017-Aug-13 04:30N 60°55' E 004°28'611.9
2017-Aug-13 04:00N 61°01' E 004°24'612.7
2017-Aug-13 03:30N 61°07' E 004°24'713.0
2017-Aug-13 03:00N 61°14' E 004°24'613.1
2017-Aug-13 02:30N 61°20' E 004°24'613.0
2017-Aug-13 02:00N 61°27' E 004°24'612.1
2017-Aug-13 01:30N 61°33' E 004°24'612.6
2017-Aug-13 01:00N 61°39' E 004°24'713.7
2017-Aug-13 00:30N 61°46' E 004°25'612.9
2017-Aug-13 00:00N 61°52' E 004°29'612.6
2017-Aug-12 23:30N 61°58' E 004°34'712.9
2017-Aug-12 23:00N 62°04' E 004°40'  

Dump ship's entire track history